sensor_id;sensor_type;location;lat;lon;timestamp;P1;durP1;ratioP1;P2;durP2;ratioP2
51459;SDS011;37534;39.772;2.718;2023-04-08T00:00:51;0.95;;;0.50;;
51459;SDS011;37534;39.772;2.718;2023-04-08T00:03:16;1.92;;;0.95;;
51459;SDS011;37534;39.772;2.718;2023-04-08T00:05:42;1.63;;;0.95;;
51459;SDS011;37534;39.772;2.718;2023-04-08T00:08:07;0.65;;;0.65;;
51459;SDS011;37534;39.772;2.718;2023-04-08T00:10:33;3.22;;;1.10;;
51459;SDS011;37534;39.772;2.718;2023-04-08T00:12:58;1.38;;;0.80;;
51459;SDS011;37534;39.772;2.718;2023-04-08T00:15:25;0.70;;;0.70;;
51459;SDS011;37534;39.772;2.718;2023-04-08T00:17:51;0.90;;;0.80;;
51459;SDS011;37534;39.772;2.718;2023-04-08T00:20:18;0.65;;;0.65;;
51459;SDS011;37534;39.772;2.718;2023-04-08T00:22:45;1.33;;;0.93;;
51459;SDS011;37534;39.772;2.718;2023-04-08T00:25:10;0.75;;;0.75;;
51459;SDS011;37534;39.772;2.718;2023-04-08T00:27:36;1.45;;;0.98;;
51459;SDS011;37534;39.772;2.718;2023-04-08T00:30:02;1.63;;;1.00;;
51459;SDS011;37534;39.772;2.718;2023-04-08T00:32:27;1.02;;;0.90;;
51459;SDS011;37534;39.772;2.718;2023-04-08T00:34:53;1.83;;;1.00;;
51459;SDS011;37534;39.772;2.718;2023-04-08T00:37:19;0.95;;;0.95;;
51459;SDS011;37534;39.772;2.718;2023-04-08T00:39:45;0.80;;;0.80;;
51459;SDS011;37534;39.772;2.718;2023-04-08T00:42:11;2.13;;;1.13;;
51459;SDS011;37534;39.772;2.718;2023-04-08T00:44:36;2.65;;;1.00;;
51459;SDS011;37534;39.772;2.718;2023-04-08T00:47:02;1.13;;;0.90;;
51459;SDS011;37534;39.772;2.718;2023-04-08T00:49:29;0.77;;;0.77;;
51459;SDS011;37534;39.772;2.718;2023-04-08T00:51:55;0.70;;;0.70;;
51459;SDS011;37534;39.772;2.718;2023-04-08T00:54:20;1.15;;;1.05;;
51459;SDS011;37534;39.772;2.718;2023-04-08T00:56:46;1.10;;;0.75;;
51459;SDS011;37534;39.772;2.718;2023-04-08T00:59:12;1.15;;;0.93;;
51459;SDS011;37534;39.772;2.718;2023-04-08T01:04:29;1.38;;;0.70;;
51459;SDS011;37534;39.772;2.718;2023-04-08T01:07:02;0.68;;;0.68;;
51459;SDS011;37534;39.772;2.718;2023-04-08T01:09:31;0.52;;;0.52;;
51459;SDS011;37534;39.772;2.718;2023-04-08T01:12:01;0.80;;;0.80;;
51459;SDS011;37534;39.772;2.718;2023-04-08T01:14:30;0.95;;;0.70;;
51459;SDS011;37534;39.772;2.718;2023-04-08T01:17:04;1.08;;;0.70;;
51459;SDS011;37534;39.772;2.718;2023-04-08T01:19:32;1.92;;;1.45;;
51459;SDS011;37534;39.772;2.718;2023-04-08T01:22:10;0.95;;;0.95;;
51459;SDS011;37534;39.772;2.718;2023-04-08T01:24:43;1.65;;;1.13;;
51459;SDS011;37534;39.772;2.718;2023-04-08T01:27:11;1.55;;;0.98;;
51459;SDS011;37534;39.772;2.718;2023-04-08T01:29:38;1.00;;;1.00;;
51459;SDS011;37534;39.772;2.718;2023-04-08T01:32:05;2.40;;;1.40;;
51459;SDS011;37534;39.772;2.718;2023-04-08T01:34:33;2.22;;;1.58;;
51459;SDS011;37534;39.772;2.718;2023-04-08T01:36:59;1.48;;;1.30;;
51459;SDS011;37534;39.772;2.718;2023-04-08T01:39:26;1.98;;;1.13;;
51459;SDS011;37534;39.772;2.718;2023-04-08T01:41:52;1.73;;;1.63;;
51459;SDS011;37534;39.772;2.718;2023-04-08T01:44:20;3.15;;;1.60;;
51459;SDS011;37534;39.772;2.718;2023-04-08T01:46:47;1.83;;;1.15;;
51459;SDS011;37534;39.772;2.718;2023-04-08T01:49:14;1.05;;;1.05;;
51459;SDS011;37534;39.772;2.718;2023-04-08T01:51:41;3.58;;;1.20;;
51459;SDS011;37534;39.772;2.718;2023-04-08T01:54:08;1.27;;;1.15;;
51459;SDS011;37534;39.772;2.718;2023-04-08T01:56:35;2.03;;;1.55;;
51459;SDS011;37534;39.772;2.718;2023-04-08T01:59:05;2.45;;;1.30;;
51459;SDS011;37534;39.772;2.718;2023-04-08T02:01:35;1.17;;;1.08;;
51459;SDS011;37534;39.772;2.718;2023-04-08T02:04:01;2.55;;;1.00;;
51459;SDS011;37534;39.772;2.718;2023-04-08T02:06:28;1.00;;;1.00;;
51459;SDS011;37534;39.772;2.718;2023-04-08T02:08:55;1.15;;;0.90;;
51459;SDS011;37534;39.772;2.718;2023-04-08T02:11:21;2.80;;;1.13;;
51459;SDS011;37534;39.772;2.718;2023-04-08T02:13:46;2.05;;;0.85;;
51459;SDS011;37534;39.772;2.718;2023-04-08T02:16:15;1.05;;;0.95;;
51459;SDS011;37534;39.772;2.718;2023-04-08T02:18:50;1.40;;;1.02;;
51459;SDS011;37534;39.772;2.718;2023-04-08T02:21:21;1.25;;;1.17;;
51459;SDS011;37534;39.772;2.718;2023-04-08T02:23:52;0.83;;;0.83;;
51459;SDS011;37534;39.772;2.718;2023-04-08T02:26:19;4.70;;;1.67;;
51459;SDS011;37534;39.772;2.718;2023-04-08T02:28:47;1.48;;;1.38;;
51459;SDS011;37534;39.772;2.718;2023-04-08T02:31:16;1.73;;;1.50;;
51459;SDS011;37534;39.772;2.718;2023-04-08T02:33:43;1.48;;;1.15;;
51459;SDS011;37534;39.772;2.718;2023-04-08T02:36:10;1.42;;;1.33;;
51459;SDS011;37534;39.772;2.718;2023-04-08T02:38:36;5.25;;;1.77;;
51459;SDS011;37534;39.772;2.718;2023-04-08T02:41:02;4.13;;;1.20;;
51459;SDS011;37534;39.772;2.718;2023-04-08T02:43:28;2.97;;;1.45;;
51459;SDS011;37534;39.772;2.718;2023-04-08T02:45:59;1.42;;;1.23;;
51459;SDS011;37534;39.772;2.718;2023-04-08T02:48:29;22.58;;;2.30;;
51459;SDS011;37534;39.772;2.718;2023-04-08T02:50:55;0.88;;;0.88;;
51459;SDS011;37534;39.772;2.718;2023-04-08T02:53:21;1.38;;;1.08;;
51459;SDS011;37534;39.772;2.718;2023-04-08T02:55:48;1.13;;;1.02;;
51459;SDS011;37534;39.772;2.718;2023-04-08T02:58:13;1.35;;;1.25;;
51459;SDS011;37534;39.772;2.718;2023-04-08T03:00:39;1.27;;;1.08;;
51459;SDS011;37534;39.772;2.718;2023-04-08T03:03:05;7.30;;;1.13;;
51459;SDS011;37534;39.772;2.718;2023-04-08T03:05:31;0.95;;;0.93;;
51459;SDS011;37534;39.772;2.718;2023-04-08T03:07:57;1.45;;;1.08;;
51459;SDS011;37534;39.772;2.718;2023-04-08T03:10:22;0.82;;;0.82;;
51459;SDS011;37534;39.772;2.718;2023-04-08T03:12:48;1.30;;;1.13;;
51459;SDS011;37534;39.772;2.718;2023-04-08T03:15:14;0.90;;;0.90;;
51459;SDS011;37534;39.772;2.718;2023-04-08T03:17:39;1.27;;;1.13;;
51459;SDS011;37534;39.772;2.718;2023-04-08T03:20:05;1.35;;;1.05;;
51459;SDS011;37534;39.772;2.718;2023-04-08T03:22:32;1.30;;;1.20;;
51459;SDS011;37534;39.772;2.718;2023-04-08T03:24:58;1.17;;;1.00;;
51459;SDS011;37534;39.772;2.718;2023-04-08T03:27:23;1.00;;;1.00;;
51459;SDS011;37534;39.772;2.718;2023-04-08T03:29:49;3.33;;;1.05;;
51459;SDS011;37534;39.772;2.718;2023-04-08T03:32:15;1.20;;;1.20;;
51459;SDS011;37534;39.772;2.718;2023-04-08T03:34:40;1.60;;;1.15;;
51459;SDS011;37534;39.772;2.718;2023-04-08T03:37:06;2.13;;;1.38;;
51459;SDS011;37534;39.772;2.718;2023-04-08T03:39:32;1.58;;;1.48;;
51459;SDS011;37534;39.772;2.718;2023-04-08T03:41:58;1.95;;;1.85;;
51459;SDS011;37534;39.772;2.718;2023-04-08T03:44:25;1.20;;;1.10;;
51459;SDS011;37534;39.772;2.718;2023-04-08T03:46:51;1.40;;;1.30;;
51459;SDS011;37534;39.772;2.718;2023-04-08T03:49:16;1.77;;;1.38;;
51459;SDS011;37534;39.772;2.718;2023-04-08T03:51:42;1.90;;;1.80;;
51459;SDS011;37534;39.772;2.718;2023-04-08T03:54:07;2.97;;;1.85;;
51459;SDS011;37534;39.772;2.718;2023-04-08T03:56:33;1.65;;;1.55;;
51459;SDS011;37534;39.772;2.718;2023-04-08T03:58:58;3.20;;;1.55;;
51459;SDS011;37534;39.772;2.718;2023-04-08T04:01:24;1.40;;;1.30;;
51459;SDS011;37534;39.772;2.718;2023-04-08T04:03:50;2.22;;;1.48;;
51459;SDS011;37534;39.772;2.718;2023-04-08T04:06:15;1.52;;;1.42;;
51459;SDS011;37534;39.772;2.718;2023-04-08T04:08:41;1.95;;;1.48;;
51459;SDS011;37534;39.772;2.718;2023-04-08T04:11:09;2.08;;;1.67;;
51459;SDS011;37534;39.772;2.718;2023-04-08T04:13:34;2.05;;;1.33;;
51459;SDS011;37534;39.772;2.718;2023-04-08T04:16:00;1.08;;;1.08;;
51459;SDS011;37534;39.772;2.718;2023-04-08T04:18:25;3.45;;;1.70;;
51459;SDS011;37534;39.772;2.718;2023-04-08T04:20:51;1.20;;;1.10;;
51459;SDS011;37534;39.772;2.718;2023-04-08T04:23:16;2.97;;;1.75;;
51459;SDS011;37534;39.772;2.718;2023-04-08T04:25:42;1.88;;;1.58;;
51459;SDS011;37534;39.772;2.718;2023-04-08T04:28:08;1.00;;;1.00;;
51459;SDS011;37534;39.772;2.718;2023-04-08T04:30:37;2.15;;;1.20;;
51459;SDS011;37534;39.772;2.718;2023-04-08T04:33:04;2.13;;;1.90;;
51459;SDS011;37534;39.772;2.718;2023-04-08T04:35:30;4.80;;;1.25;;
51459;SDS011;37534;39.772;2.718;2023-04-08T04:37:56;1.55;;;0.95;;
51459;SDS011;37534;39.772;2.718;2023-04-08T04:40:21;2.85;;;1.27;;
51459;SDS011;37534;39.772;2.718;2023-04-08T04:42:47;1.55;;;1.45;;
51459;SDS011;37534;39.772;2.718;2023-04-08T04:45:13;2.20;;;1.67;;
51459;SDS011;37534;39.772;2.718;2023-04-08T04:47:38;2.50;;;1.25;;
51459;SDS011;37534;39.772;2.718;2023-04-08T04:50:04;1.65;;;1.00;;
51459;SDS011;37534;39.772;2.718;2023-04-08T04:52:30;1.10;;;1.08;;
51459;SDS011;37534;39.772;2.718;2023-04-08T04:54:56;1.27;;;0.90;;
51459;SDS011;37534;39.772;2.718;2023-04-08T04:57:22;2.22;;;1.00;;
51459;SDS011;37534;39.772;2.718;2023-04-08T04:59:48;1.52;;;1.30;;
51459;SDS011;37534;39.772;2.718;2023-04-08T05:02:13;1.30;;;1.20;;
51459;SDS011;37534;39.772;2.718;2023-04-08T05:04:39;1.35;;;1.13;;
51459;SDS011;37534;39.772;2.718;2023-04-08T05:07:05;2.20;;;1.52;;
51459;SDS011;37534;39.772;2.718;2023-04-08T05:09:30;1.52;;;1.42;;
51459;SDS011;37534;39.772;2.718;2023-04-08T05:11:56;7.57;;;5.93;;
51459;SDS011;37534;39.772;2.718;2023-04-08T05:14:21;6.25;;;5.65;;
51459;SDS011;37534;39.772;2.718;2023-04-08T05:16:47;4.63;;;4.22;;
51459;SDS011;37534;39.772;2.718;2023-04-08T05:19:12;6.85;;;5.18;;
51459;SDS011;37534;39.772;2.718;2023-04-08T05:21:38;5.35;;;3.72;;
51459;SDS011;37534;39.772;2.718;2023-04-08T05:24:04;2.25;;;1.60;;
51459;SDS011;37534;39.772;2.718;2023-04-08T05:26:29;1.90;;;1.70;;
51459;SDS011;37534;39.772;2.718;2023-04-08T05:28:55;2.60;;;2.20;;
51459;SDS011;37534;39.772;2.718;2023-04-08T05:31:21;3.28;;;2.55;;
51459;SDS011;37534;39.772;2.718;2023-04-08T05:33:46;3.65;;;3.05;;
51459;SDS011;37534;39.772;2.718;2023-04-08T05:36:12;2.95;;;2.72;;
51459;SDS011;37534;39.772;2.718;2023-04-08T05:38:38;4.10;;;3.53;;
51459;SDS011;37534;39.772;2.718;2023-04-08T05:41:04;7.75;;;3.58;;
51459;SDS011;37534;39.772;2.718;2023-04-08T05:43:33;3.40;;;3.10;;
51459;SDS011;37534;39.772;2.718;2023-04-08T05:46:00;5.38;;;2.80;;
51459;SDS011;37534;39.772;2.718;2023-04-08T05:48:31;2.72;;;2.53;;
51459;SDS011;37534;39.772;2.718;2023-04-08T05:50:56;3.20;;;2.90;;
51459;SDS011;37534;39.772;2.718;2023-04-08T05:53:22;4.53;;;3.08;;
51459;SDS011;37534;39.772;2.718;2023-04-08T05:55:49;3.88;;;3.33;;
51459;SDS011;37534;39.772;2.718;2023-04-08T05:58:14;2.10;;;1.65;;
51459;SDS011;37534;39.772;2.718;2023-04-08T06:00:40;2.30;;;2.13;;
51459;SDS011;37534;39.772;2.718;2023-04-08T06:03:05;1.63;;;1.52;;
51459;SDS011;37534;39.772;2.718;2023-04-08T06:05:31;2.38;;;1.30;;
51459;SDS011;37534;39.772;2.718;2023-04-08T06:07:56;2.30;;;1.05;;
51459;SDS011;37534;39.772;2.718;2023-04-08T06:10:23;1.60;;;1.30;;
51459;SDS011;37534;39.772;2.718;2023-04-08T06:12:48;3.05;;;1.70;;
51459;SDS011;37534;39.772;2.718;2023-04-08T06:15:14;1.70;;;1.60;;
51459;SDS011;37534;39.772;2.718;2023-04-08T06:17:41;2.70;;;2.30;;
51459;SDS011;37534;39.772;2.718;2023-04-08T06:20:06;6.55;;;2.92;;
51459;SDS011;37534;39.772;2.718;2023-04-08T06:22:35;4.57;;;4.18;;
51459;SDS011;37534;39.772;2.718;2023-04-08T06:25:02;8.95;;;6.05;;
51459;SDS011;37534;39.772;2.718;2023-04-08T06:27:29;8.50;;;5.22;;
51459;SDS011;37534;39.772;2.718;2023-04-08T06:29:55;5.15;;;4.50;;
51459;SDS011;37534;39.772;2.718;2023-04-08T06:32:21;10.95;;;5.15;;
51459;SDS011;37534;39.772;2.718;2023-04-08T06:34:47;5.93;;;4.63;;
51459;SDS011;37534;39.772;2.718;2023-04-08T06:37:13;5.57;;;4.72;;
51459;SDS011;37534;39.772;2.718;2023-04-08T06:39:39;11.20;;;4.57;;
51459;SDS011;37534;39.772;2.718;2023-04-08T06:42:04;4.95;;;3.97;;
51459;SDS011;37534;39.772;2.718;2023-04-08T06:44:30;5.63;;;5.15;;
51459;SDS011;37534;39.772;2.718;2023-04-08T06:46:56;4.43;;;3.55;;
51459;SDS011;37534;39.772;2.718;2023-04-08T06:49:21;3.33;;;2.33;;
51459;SDS011;37534;39.772;2.718;2023-04-08T06:51:47;5.82;;;2.53;;
51459;SDS011;37534;39.772;2.718;2023-04-08T06:54:13;5.22;;;3.10;;
51459;SDS011;37534;39.772;2.718;2023-04-08T06:56:38;4.65;;;2.15;;
51459;SDS011;37534;39.772;2.718;2023-04-08T06:59:04;3.20;;;2.40;;
51459;SDS011;37534;39.772;2.718;2023-04-08T07:01:29;5.00;;;2.53;;
51459;SDS011;37534;39.772;2.718;2023-04-08T07:03:56;2.05;;;1.88;;
51459;SDS011;37534;39.772;2.718;2023-04-08T07:06:22;3.30;;;2.95;;
51459;SDS011;37534;39.772;2.718;2023-04-08T07:08:47;3.20;;;2.90;;
51459;SDS011;37534;39.772;2.718;2023-04-08T07:11:13;3.45;;;3.15;;
51459;SDS011;37534;39.772;2.718;2023-04-08T07:13:38;2.72;;;2.40;;
51459;SDS011;37534;39.772;2.718;2023-04-08T07:16:04;3.65;;;2.95;;
51459;SDS011;37534;39.772;2.718;2023-04-08T07:18:31;9.32;;;2.78;;
51459;SDS011;37534;39.772;2.718;2023-04-08T07:20:56;4.07;;;3.55;;
51459;SDS011;37534;39.772;2.718;2023-04-08T07:23:22;7.00;;;3.53;;
51459;SDS011;37534;39.772;2.718;2023-04-08T07:25:48;3.65;;;3.28;;
51459;SDS011;37534;39.772;2.718;2023-04-08T07:28:13;9.25;;;6.78;;
51459;SDS011;37534;39.772;2.718;2023-04-08T07:30:39;10.70;;;6.57;;
51459;SDS011;37534;39.772;2.718;2023-04-08T07:33:04;8.65;;;6.97;;
51459;SDS011;37534;39.772;2.718;2023-04-08T07:35:30;10.95;;;6.22;;
51459;SDS011;37534;39.772;2.718;2023-04-08T07:37:56;9.18;;;6.30;;
51459;SDS011;37534;39.772;2.718;2023-04-08T07:40:22;11.50;;;6.40;;
51459;SDS011;37534;39.772;2.718;2023-04-08T07:42:48;5.75;;;5.25;;
51459;SDS011;37534;39.772;2.718;2023-04-08T07:45:13;10.43;;;7.32;;
51459;SDS011;37534;39.772;2.718;2023-04-08T07:47:39;13.05;;;8.20;;
51459;SDS011;37534;39.772;2.718;2023-04-08T07:50:05;11.82;;;9.25;;
51459;SDS011;37534;39.772;2.718;2023-04-08T07:52:31;23.13;;;13.55;;
51459;SDS011;37534;39.772;2.718;2023-04-08T07:54:57;17.15;;;12.30;;
51459;SDS011;37534;39.772;2.718;2023-04-08T07:57:23;20.33;;;12.50;;
51459;SDS011;37534;39.772;2.718;2023-04-08T07:59:49;18.88;;;13.60;;
51459;SDS011;37534;39.772;2.718;2023-04-08T08:02:15;20.38;;;11.15;;
51459;SDS011;37534;39.772;2.718;2023-04-08T08:04:40;20.05;;;11.52;;
51459;SDS011;37534;39.772;2.718;2023-04-08T08:07:06;14.60;;;9.18;;
51459;SDS011;37534;39.772;2.718;2023-04-08T08:09:31;9.63;;;7.65;;
51459;SDS011;37534;39.772;2.718;2023-04-08T08:11:57;11.63;;;8.75;;
51459;SDS011;37534;39.772;2.718;2023-04-08T08:14:22;19.92;;;8.43;;
51459;SDS011;37534;39.772;2.718;2023-04-08T08:16:49;13.02;;;7.68;;
51459;SDS011;37534;39.772;2.718;2023-04-08T08:19:14;16.13;;;10.57;;
51459;SDS011;37534;39.772;2.718;2023-04-08T08:21:40;7.78;;;7.03;;
51459;SDS011;37534;39.772;2.718;2023-04-08T08:24:05;8.10;;;7.20;;
51459;SDS011;37534;39.772;2.718;2023-04-08T08:26:33;21.02;;;10.00;;
51459;SDS011;37534;39.772;2.718;2023-04-08T08:29:01;9.82;;;7.22;;
51459;SDS011;37534;39.772;2.718;2023-04-08T08:31:26;8.38;;;5.47;;
51459;SDS011;37534;39.772;2.718;2023-04-08T08:33:52;6.53;;;4.60;;
51459;SDS011;37534;39.772;2.718;2023-04-08T08:36:17;7.30;;;4.97;;
51459;SDS011;37534;39.772;2.718;2023-04-08T08:38:43;6.78;;;6.03;;
51459;SDS011;37534;39.772;2.718;2023-04-08T08:41:08;5.85;;;5.30;;
51459;SDS011;37534;39.772;2.718;2023-04-08T08:43:34;6.45;;;4.38;;
51459;SDS011;37534;39.772;2.718;2023-04-08T08:46:00;8.38;;;6.93;;
51459;SDS011;37534;39.772;2.718;2023-04-08T08:48:26;6.15;;;3.38;;
51459;SDS011;37534;39.772;2.718;2023-04-08T08:50:51;3.72;;;3.33;;
51459;SDS011;37534;39.772;2.718;2023-04-08T08:53:17;4.00;;;2.92;;
51459;SDS011;37534;39.772;2.718;2023-04-08T08:55:44;3.65;;;2.70;;
51459;SDS011;37534;39.772;2.718;2023-04-08T08:58:10;5.22;;;2.80;;
51459;SDS011;37534;39.772;2.718;2023-04-08T09:00:36;5.45;;;3.30;;
51459;SDS011;37534;39.772;2.718;2023-04-08T09:03:13;12.20;;;9.23;;
51459;SDS011;37534;39.772;2.718;2023-04-08T09:05:53;12.65;;;9.50;;
51459;SDS011;37534;39.772;2.718;2023-04-08T09:08:34;11.52;;;7.32;;
51459;SDS011;37534;39.772;2.718;2023-04-08T09:11:18;5.53;;;4.40;;
51459;SDS011;37534;39.772;2.718;2023-04-08T09:13:47;5.50;;;3.50;;
51459;SDS011;37534;39.772;2.718;2023-04-08T09:16:13;14.15;;;4.80;;
51459;SDS011;37534;39.772;2.718;2023-04-08T09:18:42;4.13;;;3.33;;
51459;SDS011;37534;39.772;2.718;2023-04-08T09:21:10;11.70;;;6.45;;
51459;SDS011;37534;39.772;2.718;2023-04-08T09:23:37;6.05;;;3.70;;
51459;SDS011;37534;39.772;2.718;2023-04-08T09:26:17;4.53;;;3.10;;
51459;SDS011;37534;39.772;2.718;2023-04-08T09:29:07;7.57;;;4.10;;
51459;SDS011;37534;39.772;2.718;2023-04-08T09:31:34;5.90;;;2.40;;
51459;SDS011;37534;39.772;2.718;2023-04-08T09:34:12;2.33;;;1.50;;
51459;SDS011;37534;39.772;2.718;2023-04-08T09:36:40;2.83;;;2.35;;
51459;SDS011;37534;39.772;2.718;2023-04-08T09:39:06;2.85;;;1.73;;
51459;SDS011;37534;39.772;2.718;2023-04-08T09:41:32;3.78;;;2.17;;
51459;SDS011;37534;39.772;2.718;2023-04-08T09:43:59;5.60;;;1.38;;
51459;SDS011;37534;39.772;2.718;2023-04-08T09:47:11;3.63;;;1.45;;
51459;SDS011;37534;39.772;2.718;2023-04-08T09:57:09;2.40;;;1.92;;
51459;SDS011;37534;39.772;2.718;2023-04-08T09:59:59;3.28;;;1.40;;
51459;SDS011;37534;39.772;2.718;2023-04-08T10:02:30;6.47;;;2.30;;
51459;SDS011;37534;39.772;2.718;2023-04-08T10:05:04;4.00;;;1.77;;
51459;SDS011;37534;39.772;2.718;2023-04-08T10:07:31;1.45;;;1.33;;
51459;SDS011;37534;39.772;2.718;2023-04-08T10:09:58;6.60;;;3.17;;
51459;SDS011;37534;39.772;2.718;2023-04-08T10:12:24;3.83;;;2.42;;
51459;SDS011;37534;39.772;2.718;2023-04-08T10:17:50;2.35;;;1.52;;
51459;SDS011;37534;39.772;2.718;2023-04-08T10:20:53;1.92;;;1.52;;
51459;SDS011;37534;39.772;2.718;2023-04-08T10:23:16;4.05;;;1.88;;
51459;SDS011;37534;39.772;2.718;2023-04-08T10:25:43;2.25;;;1.52;;
51459;SDS011;37534;39.772;2.718;2023-04-08T10:30:55;4.82;;;1.40;;
51459;SDS011;37534;39.772;2.718;2023-04-08T10:33:31;2.97;;;1.90;;
51459;SDS011;37534;39.772;2.718;2023-04-08T10:38:36;5.70;;;1.10;;
51459;SDS011;37534;39.772;2.718;2023-04-08T10:41:06;2.28;;;0.75;;
51459;SDS011;37534;39.772;2.718;2023-04-08T10:43:35;2.33;;;1.38;;
51459;SDS011;37534;39.772;2.718;2023-04-08T10:46:01;2.08;;;1.02;;
51459;SDS011;37534;39.772;2.718;2023-04-08T10:48:29;2.95;;;1.20;;
51459;SDS011;37534;39.772;2.718;2023-04-08T10:51:01;1.13;;;0.90;;
51459;SDS011;37534;39.772;2.718;2023-04-08T10:53:32;3.05;;;1.15;;
51459;SDS011;37534;39.772;2.718;2023-04-08T10:56:08;4.55;;;1.13;;
51459;SDS011;37534;39.772;2.718;2023-04-08T10:58:50;1.17;;;1.08;;
51459;SDS011;37534;39.772;2.718;2023-04-08T11:01:16;1.40;;;1.20;;
51459;SDS011;37534;39.772;2.718;2023-04-08T11:03:42;3.72;;;1.17;;
51459;SDS011;37534;39.772;2.718;2023-04-08T11:06:08;2.78;;;1.23;;
51459;SDS011;37534;39.772;2.718;2023-04-08T11:08:34;2.78;;;1.48;;
51459;SDS011;37534;39.772;2.718;2023-04-08T11:11:04;1.30;;;0.90;;
51459;SDS011;37534;39.772;2.718;2023-04-08T11:13:44;3.58;;;1.05;;
51459;SDS011;37534;39.772;2.718;2023-04-08T11:16:10;2.47;;;1.27;;
51459;SDS011;37534;39.772;2.718;2023-04-08T11:18:36;3.20;;;1.02;;
51459;SDS011;37534;39.772;2.718;2023-04-08T11:21:07;3.15;;;1.35;;
51459;SDS011;37534;39.772;2.718;2023-04-08T11:23:34;2.83;;;1.25;;
51459;SDS011;37534;39.772;2.718;2023-04-08T11:26:00;1.83;;;1.00;;
51459;SDS011;37534;39.772;2.718;2023-04-08T11:28:26;4.78;;;1.48;;
51459;SDS011;37534;39.772;2.718;2023-04-08T11:30:53;1.38;;;1.00;;
51459;SDS011;37534;39.772;2.718;2023-04-08T11:33:19;2.97;;;1.17;;
51459;SDS011;37534;39.772;2.718;2023-04-08T11:35:49;1.27;;;0.90;;
51459;SDS011;37534;39.772;2.718;2023-04-08T11:38:15;4.13;;;1.30;;
51459;SDS011;37534;39.772;2.718;2023-04-08T11:40:55;3.28;;;1.45;;
51459;SDS011;37534;39.772;2.718;2023-04-08T11:43:23;2.60;;;1.10;;
51459;SDS011;37534;39.772;2.718;2023-04-08T11:45:49;3.03;;;1.38;;
51459;SDS011;37534;39.772;2.718;2023-04-08T11:48:15;1.23;;;1.13;;
51459;SDS011;37534;39.772;2.718;2023-04-08T11:50:42;1.40;;;1.30;;
51459;SDS011;37534;39.772;2.718;2023-04-08T11:53:17;2.40;;;1.27;;
51459;SDS011;37534;39.772;2.718;2023-04-08T11:55:49;4.50;;;1.67;;
51459;SDS011;37534;39.772;2.718;2023-04-08T11:58:15;2.05;;;1.20;;
51459;SDS011;37534;39.772;2.718;2023-04-08T12:00:41;2.03;;;1.23;;
51459;SDS011;37534;39.772;2.718;2023-04-08T12:03:06;2.78;;;0.95;;
51459;SDS011;37534;39.772;2.718;2023-04-08T12:05:32;2.75;;;1.40;;
51459;SDS011;37534;39.772;2.718;2023-04-08T12:07:58;1.02;;;0.77;;
51459;SDS011;37534;39.772;2.718;2023-04-08T12:10:23;2.35;;;1.25;;
51459;SDS011;37534;39.772;2.718;2023-04-08T12:12:49;1.02;;;0.60;;
51459;SDS011;37534;39.772;2.718;2023-04-08T12:15:15;4.75;;;0.88;;
51459;SDS011;37534;39.772;2.718;2023-04-08T12:17:41;4.85;;;1.33;;
51459;SDS011;37534;39.772;2.718;2023-04-08T12:20:09;2.33;;;1.35;;
51459;SDS011;37534;39.772;2.718;2023-04-08T12:22:36;3.78;;;0.98;;
51459;SDS011;37534;39.772;2.718;2023-04-08T12:25:01;4.18;;;1.30;;
51459;SDS011;37534;39.772;2.718;2023-04-08T12:27:28;6.45;;;2.38;;
51459;SDS011;37534;39.772;2.718;2023-04-08T12:29:54;5.63;;;2.05;;
51459;SDS011;37534;39.772;2.718;2023-04-08T12:32:20;4.00;;;1.80;;
51459;SDS011;37534;39.772;2.718;2023-04-08T12:34:46;5.05;;;1.52;;
51459;SDS011;37534;39.772;2.718;2023-04-08T12:37:11;5.25;;;1.70;;
51459;SDS011;37534;39.772;2.718;2023-04-08T12:39:37;3.63;;;1.33;;
51459;SDS011;37534;39.772;2.718;2023-04-08T12:42:03;3.70;;;1.70;;
51459;SDS011;37534;39.772;2.718;2023-04-08T12:44:29;3.90;;;1.50;;
51459;SDS011;37534;39.772;2.718;2023-04-08T12:46:54;3.60;;;1.30;;
51459;SDS011;37534;39.772;2.718;2023-04-08T12:49:22;2.45;;;1.35;;
51459;SDS011;37534;39.772;2.718;2023-04-08T12:51:48;8.63;;;2.08;;
51459;SDS011;37534;39.772;2.718;2023-04-08T12:54:14;1.73;;;1.42;;
51459;SDS011;37534;39.772;2.718;2023-04-08T12:56:39;8.20;;;1.52;;
51459;SDS011;37534;39.772;2.718;2023-04-08T12:59:07;3.53;;;1.33;;
51459;SDS011;37534;39.772;2.718;2023-04-08T13:01:34;2.88;;;1.00;;
51459;SDS011;37534;39.772;2.718;2023-04-08T13:03:59;2.67;;;1.42;;
51459;SDS011;37534;39.772;2.718;2023-04-08T13:06:26;2.65;;;1.33;;
51459;SDS011;37534;39.772;2.718;2023-04-08T13:08:52;2.75;;;1.45;;
51459;SDS011;37534;39.772;2.718;2023-04-08T13:11:18;2.05;;;0.90;;
51459;SDS011;37534;39.772;2.718;2023-04-08T13:13:43;4.13;;;1.15;;
51459;SDS011;37534;39.772;2.718;2023-04-08T13:16:10;7.07;;;1.75;;
51459;SDS011;37534;39.772;2.718;2023-04-08T13:18:39;9.32;;;1.20;;
51459;SDS011;37534;39.772;2.718;2023-04-08T13:21:06;1.58;;;0.95;;
51459;SDS011;37534;39.772;2.718;2023-04-08T13:23:32;4.18;;;0.90;;
51459;SDS011;37534;39.772;2.718;2023-04-08T13:25:58;5.15;;;0.88;;
51459;SDS011;37534;39.772;2.718;2023-04-08T13:28:23;2.83;;;1.08;;
51459;SDS011;37534;39.772;2.718;2023-04-08T13:30:49;1.70;;;0.50;;
51459;SDS011;37534;39.772;2.718;2023-04-08T13:33:15;1.60;;;0.90;;
51459;SDS011;37534;39.772;2.718;2023-04-08T13:35:41;1.35;;;0.82;;
51459;SDS011;37534;39.772;2.718;2023-04-08T13:38:07;4.30;;;1.10;;
51459;SDS011;37534;39.772;2.718;2023-04-08T13:40:32;3.10;;;1.33;;
51459;SDS011;37534;39.772;2.718;2023-04-08T13:42:58;3.50;;;1.38;;
51459;SDS011;37534;39.772;2.718;2023-04-08T13:45:23;11.38;;;1.10;;
51459;SDS011;37534;39.772;2.718;2023-04-08T13:47:49;2.08;;;0.95;;
51459;SDS011;37534;39.772;2.718;2023-04-08T13:50:14;1.17;;;0.85;;
51459;SDS011;37534;39.772;2.718;2023-04-08T13:52:41;3.50;;;1.02;;
51459;SDS011;37534;39.772;2.718;2023-04-08T13:55:06;7.72;;;1.50;;
51459;SDS011;37534;39.772;2.718;2023-04-08T13:57:32;1.80;;;0.98;;
51459;SDS011;37534;39.772;2.718;2023-04-08T13:59:58;2.83;;;1.20;;
51459;SDS011;37534;39.772;2.718;2023-04-08T14:02:23;4.15;;;1.75;;
51459;SDS011;37534;39.772;2.718;2023-04-08T14:04:49;1.80;;;1.08;;
51459;SDS011;37534;39.772;2.718;2023-04-08T14:07:15;4.32;;;1.83;;
51459;SDS011;37534;39.772;2.718;2023-04-08T14:09:41;2.80;;;1.23;;
51459;SDS011;37534;39.772;2.718;2023-04-08T14:12:06;3.45;;;1.08;;
51459;SDS011;37534;39.772;2.718;2023-04-08T14:14:32;2.90;;;1.42;;
51459;SDS011;37534;39.772;2.718;2023-04-08T14:16:57;4.15;;;1.23;;
51459;SDS011;37534;39.772;2.718;2023-04-08T14:19:23;3.60;;;1.35;;
51459;SDS011;37534;39.772;2.718;2023-04-08T14:21:48;4.60;;;1.08;;
51459;SDS011;37534;39.772;2.718;2023-04-08T14:24:14;3.78;;;1.35;;
51459;SDS011;37534;39.772;2.718;2023-04-08T14:26:40;2.17;;;0.90;;
51459;SDS011;37534;39.772;2.718;2023-04-08T14:29:06;4.93;;;1.10;;
51459;SDS011;37534;39.772;2.718;2023-04-08T14:31:32;1.08;;;0.82;;
51459;SDS011;37534;39.772;2.718;2023-04-08T14:33:59;4.80;;;1.60;;
51459;SDS011;37534;39.772;2.718;2023-04-08T14:36:25;8.77;;;1.88;;
51459;SDS011;37534;39.772;2.718;2023-04-08T14:38:52;1.80;;;1.35;;
51459;SDS011;37534;39.772;2.718;2023-04-08T14:41:18;6.70;;;1.50;;
51459;SDS011;37534;39.772;2.718;2023-04-08T14:43:45;7.32;;;1.55;;
51459;SDS011;37534;39.772;2.718;2023-04-08T14:46:11;2.38;;;1.25;;
51459;SDS011;37534;39.772;2.718;2023-04-08T14:48:36;2.17;;;1.33;;
51459;SDS011;37534;39.772;2.718;2023-04-08T14:51:02;2.97;;;1.77;;
51459;SDS011;37534;39.772;2.718;2023-04-08T14:53:27;5.15;;;1.55;;
51459;SDS011;37534;39.772;2.718;2023-04-08T14:55:53;3.67;;;1.25;;
51459;SDS011;37534;39.772;2.718;2023-04-08T14:58:19;2.20;;;1.10;;
51459;SDS011;37534;39.772;2.718;2023-04-08T15:00:45;4.65;;;1.73;;
51459;SDS011;37534;39.772;2.718;2023-04-08T15:03:12;3.83;;;1.30;;